createdAt,value
2017-07-22T00:00:07.646Z,17.76
2017-07-22T00:00:26.912Z,17.81
2017-07-22T00:00:46.646Z,17.69
2017-07-22T00:01:05.925Z,17.79
2017-07-22T00:01:25.237Z,17.67
2017-07-22T00:01:44.576Z,17.73
2017-07-22T00:02:03.877Z,17.76
2017-07-22T00:02:22.135Z,17.74
2017-07-22T00:02:41.444Z,17.71
2017-07-22T00:03:00.728Z,17.73
2017-07-22T00:03:20.023Z,17.73
2017-07-22T00:03:38.806Z,17.71
2017-07-22T00:03:57.577Z,17.85
2017-07-22T00:04:16.864Z,17.88
2017-07-22T00:04:36.140Z,17.88
2017-07-22T00:04:55.412Z,17.91
2017-07-22T00:05:14.748Z,17.85
2017-07-22T00:05:33.039Z,17.88
2017-07-22T00:05:52.331Z,17.89
2017-07-22T00:06:10.580Z,17.87
2017-07-22T00:06:29.394Z,17.85
2017-07-22T00:06:48.677Z,17.85
2017-07-22T00:07:07.444Z,17.85
2017-07-22T00:07:26.726Z,17.81
2017-07-22T00:07:45.586Z,17.74
2017-07-22T00:08:04.327Z,17.81
2017-07-22T00:08:23.611Z,17.81
2017-07-22T00:08:42.968Z,17.76
2017-07-22T00:09:02.350Z,17.66
2017-07-22T00:09:21.703Z,17.77
2017-07-22T00:09:40.983Z,17.7
2017-07-22T00:10:00.285Z,17.82
2017-07-22T00:10:18.064Z,17.74
2017-07-22T00:10:37.337Z,17.81
2017-07-22T00:10:56.604Z,17.74
2017-07-22T00:11:15.408Z,17.71
2017-07-22T00:11:34.679Z,17.69
2017-07-22T00:11:53.454Z,17.74
2017-07-22T00:12:12.217Z,17.71
2017-07-22T00:12:30.954Z,17.73
2017-07-22T00:12:49.733Z,17.74
2017-07-22T00:13:09.007Z,17.64
2017-07-22T00:13:28.299Z,17.71
2017-07-22T00:13:47.590Z,17.7
2017-07-22T00:14:06.891Z,17.69
2017-07-22T00:14:26.180Z,17.71
2017-07-22T00:14:45.495Z,17.77
2017-07-22T00:15:04.286Z,17.58
2017-07-22T00:15:23.639Z,17.63
2017-07-22T00:15:42.424Z,17.63
2017-07-22T00:16:01.703Z,17.64
2017-07-22T00:16:21.005Z,17.66
2017-07-22T00:16:40.285Z,17.6
2017-07-22T00:16:58.563Z,17.58
2017-07-22T00:17:17.828Z,17.57
2017-07-22T00:17:37.109Z,17.58
2017-07-22T00:17:54.841Z,17.54
2017-07-22T00:18:14.127Z,17.48
2017-07-22T00:18:33.411Z,17.44
2017-07-22T00:18:52.684Z,17.55
2017-07-22T00:19:11.972Z,17.5
2017-07-22T00:19:30.223Z,17.53
2017-07-22T00:19:49.493Z,17.5
2017-07-22T00:20:08.803Z,17.53
2017-07-22T00:20:28.131Z,17.47
2017-07-22T00:20:47.410Z,17.46
2017-07-22T00:21:06.678Z,17.48
2017-07-22T00:21:25.463Z,17.48
2017-07-22T00:21:44.854Z,17.54
2017-07-22T00:22:03.177Z,17.53
2017-07-22T00:22:21.441Z,17.47
2017-07-22T00:22:40.729Z,17.54
2017-07-22T00:23:00.000Z,17.53
2017-07-22T00:23:18.779Z,17.51
2017-07-22T00:23:38.054Z,17.53
2017-07-22T00:23:57.330Z,17.53
2017-07-22T00:24:16.587Z,17.51
2017-07-22T00:24:35.852Z,17.5
2017-07-22T00:24:54.639Z,17.53
2017-07-22T00:25:13.926Z,17.48
2017-07-22T00:25:32.686Z,17.51
2017-07-22T00:25:51.958Z,17.55
2017-07-22T00:26:11.253Z,17.5
2017-07-22T00:26:30.043Z,17.55
2017-07-22T00:26:49.349Z,17.48
2017-07-22T00:27:08.654Z,17.53
2017-07-22T00:27:27.939Z,17.48
2017-07-22T00:27:47.254Z,17.5
2017-07-22T00:28:06.561Z,17.48
2017-07-22T00:28:25.964Z,17.54
2017-07-22T00:28:45.266Z,17.47
2017-07-22T00:29:04.775Z,17.55
2017-07-22T00:29:24.079Z,17.51
2017-07-22T00:29:43.479Z,17.53
2017-07-22T00:30:02.827Z,17.48
2017-07-22T00:30:22.618Z,17.54
2017-07-22T00:30:41.629Z,17.57
2017-07-22T00:30:59.891Z,17.57
2017-07-22T00:31:18.691Z,17.46
2017-07-22T00:31:37.963Z,17.53
2017-07-22T00:31:57.237Z,17.48
2017-07-22T00:32:16.523Z,17.4
2017-07-22T00:32:35.794Z,17.44
2017-07-22T00:32:54.547Z,17.44
2017-07-22T00:33:13.805Z,17.5
2017-07-22T00:33:33.098Z,17.47
2017-07-22T00:33:51.880Z,17.39
2017-07-22T00:34:10.676Z,17.43
2017-07-22T00:34:29.415Z,17.48
2017-07-22T00:34:48.239Z,17.33
2017-07-22T00:35:07.568Z,17.38
2017-07-22T00:35:26.861Z,17.36
2017-07-22T00:35:46.128Z,17.36
2017-07-22T00:36:05.410Z,17.36
2017-07-22T00:36:23.672Z,17.35
2017-07-22T00:36:42.941Z,17.32
2017-07-22T00:37:02.211Z,17.32
2017-07-22T00:37:21.488Z,17.38
2017-07-22T00:37:40.755Z,17.35
2017-07-22T00:37:59.523Z,17.26
2017-07-22T00:38:18.812Z,17.25
2017-07-22T00:38:38.114Z,17.35
2017-07-22T00:38:57.425Z,17.32
2017-07-22T00:39:16.707Z,17.33
2017-07-22T00:39:35.975Z,17.26
2017-07-22T00:39:55.294Z,17.32
2017-07-22T00:40:14.620Z,17.3
2017-07-22T00:40:33.892Z,17.35
2017-07-22T00:40:52.672Z,17.26
2017-07-22T00:41:11.968Z,17.38
2017-07-22T00:41:31.239Z,17.3
2017-07-22T00:41:50.519Z,17.3
2017-07-22T00:42:09.265Z,17.25
2017-07-22T00:42:28.544Z,17.32
2017-07-22T00:42:47.793Z,17.26
2017-07-22T00:43:07.070Z,17.28
2017-07-22T00:43:26.375Z,17.29
2017-07-22T00:43:45.651Z,17.28
2017-07-22T00:44:04.931Z,17.14
2017-07-22T00:44:23.689Z,17.18
2017-07-22T00:44:42.966Z,17.26
2017-07-22T00:45:02.312Z,17.14
2017-07-22T00:45:22.866Z,17.25
2017-07-22T00:45:41.608Z,17.18
2017-07-22T00:46:00.890Z,17.2
2017-07-22T00:46:20.179Z,17.11
2017-07-22T00:46:38.960Z,17.17
2017-07-22T00:46:58.252Z,17.13
2017-07-22T00:47:17.572Z,17.14
2017-07-22T00:47:36.853Z,17.17
2017-07-22T00:47:56.137Z,17.14
2017-07-22T00:48:15.456Z,17.14
2017-07-22T00:48:34.734Z,17.15
2017-07-22T00:48:54.041Z,17.02
2017-07-22T00:49:13.318Z,17.11
2017-07-22T00:49:32.112Z,17.05
2017-07-22T00:49:51.386Z,17.18
2017-07-22T00:50:10.663Z,17.05
2017-07-22T00:50:29.467Z,17.11
2017-07-22T00:50:48.731Z,17.05
2017-07-22T00:51:08.024Z,17.03
2017-07-22T00:51:27.309Z,17.03
2017-07-22T00:51:46.625Z,17.07
2017-07-22T00:52:05.918Z,17.05
2017-07-22T00:52:25.205Z,16.95
2017-07-22T00:52:43.973Z,16.98
2017-07-22T00:53:03.365Z,16.92
2017-07-22T00:53:22.181Z,16.96
2017-07-22T00:53:41.502Z,16.98
2017-07-22T00:54:00.988Z,16.95
2017-07-22T00:54:20.273Z,16.98
2017-07-22T00:54:39.026Z,16.96
2017-07-22T00:54:58.318Z,16.96
2017-07-22T00:55:17.092Z,17.02
2017-07-22T00:55:36.384Z,16.95
2017-07-22T00:55:55.684Z,16.84
2017-07-22T00:56:15.008Z,16.88
2017-07-22T00:56:34.288Z,16.88
2017-07-22T00:56:53.567Z,16.85
2017-07-22T00:57:12.860Z,16.95
2017-07-22T00:57:32.183Z,16.85
2017-07-22T00:57:51.460Z,16.84
2017-07-22T00:58:10.221Z,16.84
2017-07-22T00:58:29.007Z,16.84
2017-07-22T00:58:48.261Z,16.81
2017-07-22T00:59:07.550Z,16.84
2017-07-22T00:59:26.808Z,16.88
2017-07-22T00:59:46.092Z,16.75
2017-07-22T01:00:04.869Z,16.7
2017-07-22T01:00:24.166Z,16.77
2017-07-22T01:00:42.907Z,16.74
2017-07-22T01:01:01.671Z,16.7
2017-07-22T01:01:20.977Z,16.71
2017-07-22T01:01:39.727Z,16.7
2017-07-22T01:01:59.018Z,16.73
2017-07-22T01:02:17.790Z,16.75
2017-07-22T01:02:37.066Z,16.74
2017-07-22T01:02:55.848Z,16.84
2017-07-22T01:03:14.638Z,16.78
2017-07-22T01:03:33.932Z,16.78
2017-07-22T01:03:53.251Z,16.77
2017-07-22T01:04:12.572Z,16.71
2017-07-22T01:04:31.845Z,16.66
2017-07-22T01:04:51.201Z,16.6
2017-07-22T01:05:10.599Z,16.5
2017-07-22T01:05:29.480Z,16.63
2017-07-22T01:05:48.820Z,16.56
2017-07-22T01:06:08.108Z,16.55
2017-07-22T01:06:27.458Z,16.53
2017-07-22T01:06:46.830Z,16.57
2017-07-22T01:07:06.103Z,16.56
2017-07-22T01:07:25.423Z,16.56
2017-07-22T01:07:44.696Z,16.55
2017-07-22T01:08:03.995Z,16.53
2017-07-22T01:08:23.304Z,16.59
2017-07-22T01:08:42.628Z,16.55
2017-07-22T01:09:01.399Z,16.57
2017-07-22T01:09:20.726Z,16.65
2017-07-22T01:09:40.038Z,16.59
2017-07-22T01:09:58.785Z,16.62
2017-07-22T01:10:18.064Z,16.57
2017-07-22T01:10:37.350Z,16.5
2017-07-22T01:10:56.126Z,16.56
2017-07-22T01:11:15.460Z,16.59
2017-07-22T01:11:34.763Z,16.6
2017-07-22T01:11:54.085Z,16.62
2017-07-22T01:12:12.876Z,16.65
2017-07-22T01:12:32.181Z,16.62
2017-07-22T01:12:51.445Z,16.6
2017-07-22T01:13:10.730Z,16.65
2017-07-22T01:13:29.492Z,16.59
2017-07-22T01:13:48.480Z,16.59
2017-07-22T01:14:07.770Z,16.57
2017-07-22T01:14:26.013Z,16.52
2017-07-22T01:14:45.326Z,16.53
2017-07-22T01:15:04.616Z,16.55
2017-07-22T01:15:23.906Z,16.53
2017-07-22T01:15:43.198Z,16.53
2017-07-22T01:16:02.487Z,16.63
2017-07-22T01:16:21.811Z,16.55
2017-07-22T01:16:41.107Z,16.52
2017-07-22T01:17:00.401Z,16.55
2017-07-22T01:17:19.677Z,16.52
2017-07-22T01:17:38.968Z,16.45
2017-07-22T01:17:58.273Z,16.47
2017-07-22T01:18:17.540Z,16.45
2017-07-22T01:18:36.324Z,16.56
2017-07-22T01:18:55.767Z,16.5
2017-07-22T01:19:15.040Z,16.48
2017-07-22T01:19:34.318Z,16.48
2017-07-22T01:19:53.612Z,16.38
2017-07-22T01:20:11.869Z,16.3
2017-07-22T01:20:31.134Z,16.4
2017-07-22T01:20:50.454Z,16.25
2017-07-22T01:21:09.758Z,16.29
2017-07-22T01:21:29.016Z,16.22
2017-07-22T01:21:48.302Z,16.23
2017-07-22T01:22:07.575Z,16.25
2017-07-22T01:22:26.326Z,16.3
2017-07-22T01:22:45.093Z,16.3
2017-07-22T01:23:04.374Z,16.27
2017-07-22T01:23:23.660Z,16.25
2017-07-22T01:23:42.938Z,16.2
2017-07-22T01:24:02.205Z,16.27
2017-07-22T01:24:20.973Z,16.25
2017-07-22T01:24:40.233Z,16.27
2017-07-22T01:24:58.990Z,16.27
2017-07-22T01:25:17.775Z,16.29
2017-07-22T01:25:37.077Z,16.35
2017-07-22T01:25:56.383Z,16.38
2017-07-22T01:26:15.651Z,16.34
2017-07-22T01:26:34.918Z,16.25
2017-07-22T01:26:54.175Z,16.29
2017-07-22T01:27:13.472Z,16.23
2017-07-22T01:27:32.296Z,16.18
2017-07-22T01:27:51.601Z,16.26
2017-07-22T01:28:10.851Z,16.23
2017-07-22T01:28:30.147Z,16.26
2017-07-22T01:28:49.427Z,16.26
2017-07-22T01:29:08.718Z,16.16
2017-07-22T01:29:28.112Z,16.29
2017-07-22T01:29:47.474Z,16.29
2017-07-22T01:30:06.763Z,16.26
2017-07-22T01:30:25.536Z,16.3
2017-07-22T01:30:44.289Z,16.22
2017-07-22T01:31:03.613Z,16.25
2017-07-22T01:31:22.925Z,16.25
2017-07-22T01:31:42.194Z,16.26
2017-07-22T01:32:01.474Z,16.26
2017-07-22T01:32:20.776Z,16.26
2017-07-22T01:32:40.086Z,16.25
2017-07-22T01:32:59.421Z,16.26
2017-07-22T01:33:18.192Z,16.27
2017-07-22T01:33:36.964Z,16.23
2017-07-22T01:33:56.356Z,16.25
2017-07-22T01:34:15.682Z,16.04
2017-07-22T01:34:34.941Z,16.25
2017-07-22T01:34:54.253Z,16.29
2017-07-22T01:35:13.039Z,16.25
2017-07-22T01:35:31.818Z,16.18
2017-07-22T01:35:51.072Z,16.23
2017-07-22T01:36:09.833Z,16.22
2017-07-22T01:36:28.586Z,16.2
2017-07-22T01:36:47.865Z,16.23
2017-07-22T01:37:07.151Z,16.14
2017-07-22T01:37:26.446Z,16.12
2017-07-22T01:37:45.765Z,16.04
2017-07-22T01:38:05.055Z,16.1
2017-07-22T01:38:24.331Z,16.1
2017-07-22T01:38:43.086Z,16.03
2017-07-22T01:39:02.364Z,16.06
2017-07-22T01:39:21.626Z,16.16
2017-07-22T01:39:39.397Z,16.07
2017-07-22T01:39:58.695Z,16.08
2017-07-22T01:40:18.006Z,16.08
2017-07-22T01:40:36.787Z,15.99
2017-07-22T01:40:56.054Z,15.94
2017-07-22T01:41:15.319Z,15.97
2017-07-22T01:41:34.581Z,15.97
2017-07-22T01:41:53.355Z,16.06
2017-07-22T01:42:12.629Z,15.96
2017-07-22T01:42:31.928Z,16.01
2017-07-22T01:42:51.241Z,16.03
2017-07-22T01:43:10.526Z,16.1
2017-07-22T01:43:29.799Z,16.1
2017-07-22T01:43:49.157Z,16.12
2017-07-22T01:44:07.915Z,16.1
2017-07-22T01:44:26.705Z,16.04
2017-07-22T01:44:45.987Z,16.06
2017-07-22T01:45:05.261Z,16.2
2017-07-22T01:45:24.582Z,16.15
2017-07-22T01:45:43.837Z,16.15
2017-07-22T01:46:03.128Z,16.15
2017-07-22T01:46:22.441Z,16.12
2017-07-22T01:46:41.711Z,16.15
2017-07-22T01:47:00.972Z,16.07
2017-07-22T01:47:19.718Z,16.12
2017-07-22T01:47:39.003Z,16.03
2017-07-22T01:47:57.784Z,16.04
2017-07-22T01:48:16.544Z,15.99
2017-07-22T01:48:35.811Z,16
2017-07-22T01:48:55.264Z,16.07
2017-07-22T01:49:14.543Z,16.03
2017-07-22T01:49:33.852Z,16.01
2017-07-22T01:49:52.622Z,16
2017-07-22T01:50:11.890Z,15.97
2017-07-22T01:50:31.175Z,15.97
2017-07-22T01:50:50.473Z,15.99
2017-07-22T01:51:09.779Z,16.06
2017-07-22T01:51:29.056Z,15.96
2017-07-22T01:51:47.295Z,15.99
2017-07-22T01:52:06.572Z,15.97
2017-07-22T01:52:25.896Z,15.92
2017-07-22T01:52:45.178Z,15.97
2017-07-22T01:53:03.923Z,15.94
2017-07-22T01:53:22.708Z,15.97
2017-07-22T01:53:41.996Z,15.99
2017-07-22T01:54:01.261Z,15.88
2017-07-22T01:54:20.565Z,15.86
2017-07-22T01:54:39.852Z,15.88
2017-07-22T01:54:58.629Z,15.86
2017-07-22T01:55:17.897Z,15.85
2017-07-22T01:55:37.172Z,15.88
2017-07-22T01:55:56.436Z,15.91
2017-07-22T01:56:15.755Z,15.85
2017-07-22T01:56:34.536Z,15.91
2017-07-22T01:56:53.853Z,15.88
2017-07-22T01:57:13.137Z,15.86
2017-07-22T01:57:31.912Z,15.88
2017-07-22T01:57:51.190Z,15.92
2017-07-22T01:58:10.467Z,15.89
2017-07-22T01:58:29.743Z,15.83
2017-07-22T01:58:49.035Z,15.82
2017-07-22T01:59:08.315Z,15.81
2017-07-22T01:59:27.589Z,15.86
2017-07-22T01:59:46.886Z,15.7
2017-07-22T02:00:05.683Z,15.78
2017-07-22T02:00:24.964Z,15.73
2017-07-22T02:00:44.273Z,15.78
2017-07-22T02:01:03.546Z,15.75
2017-07-22T02:01:22.844Z,15.67
2017-07-22T02:01:41.625Z,15.78
2017-07-22T02:02:00.913Z,15.73
2017-07-22T02:02:20.185Z,15.73
2017-07-22T02:02:39.491Z,15.78
2017-07-22T02:02:58.783Z,15.78
2017-07-22T02:03:18.059Z,15.78
2017-07-22T02:03:37.324Z,15.68
2017-07-22T02:04:10.888Z,15.66
2017-07-22T02:04:29.648Z,15.81
2017-07-22T02:04:48.936Z,15.66
2017-07-22T02:05:08.229Z,15.63
2017-07-22T02:05:27.495Z,15.73
2017-07-22T02:05:46.784Z,15.66
2017-07-22T02:06:06.059Z,15.73
2017-07-22T02:06:24.837Z,15.79
2017-07-22T02:06:44.119Z,15.63
2017-07-22T02:07:02.899Z,15.61
2017-07-22T02:07:21.694Z,15.66
2017-07-22T02:07:40.966Z,15.64
2017-07-22T02:07:59.737Z,15.67
2017-07-22T02:08:19.042Z,15.7
2017-07-22T02:08:37.289Z,15.64
2017-07-22T02:08:56.561Z,15.66
2017-07-22T02:09:15.832Z,15.75
2017-07-22T02:09:34.602Z,15.66
2017-07-22T02:09:53.878Z,15.7
2017-07-22T02:10:12.647Z,15.63
2017-07-22T02:10:31.929Z,15.76
2017-07-22T02:10:51.211Z,15.7
2017-07-22T02:11:10.490Z,15.64
2017-07-22T02:11:29.806Z,15.71
2017-07-22T02:11:49.071Z,15.66
2017-07-22T02:12:07.845Z,15.68
2017-07-22T02:12:27.151Z,15.66
2017-07-22T02:12:46.454Z,15.63
2017-07-22T02:13:05.741Z,15.71
2017-07-22T02:13:25.016Z,15.71
2017-07-22T02:13:44.351Z,15.67
2017-07-22T02:14:03.675Z,15.67
2017-07-22T02:14:22.976Z,15.71
2017-07-22T02:14:41.742Z,15.7
2017-07-22T02:15:01.071Z,15.7
2017-07-22T02:15:20.341Z,15.66
2017-07-22T02:15:39.092Z,15.66
2017-07-22T02:15:58.361Z,15.64
2017-07-22T02:16:17.618Z,15.68
2017-07-22T02:16:36.932Z,15.67
2017-07-22T02:16:56.242Z,15.67
2017-07-22T02:17:15.018Z,15.64
2017-07-22T02:17:34.288Z,15.76
2017-07-22T02:17:53.554Z,15.67
2017-07-22T02:18:12.328Z,15.68
2017-07-22T02:18:31.657Z,15.64
2017-07-22T02:18:50.955Z,15.6
2017-07-22T02:19:10.309Z,15.63
2017-07-22T02:19:29.611Z,15.78
2017-07-22T02:19:48.407Z,15.7
2017-07-22T02:20:07.704Z,15.67
2017-07-22T02:20:27.006Z,15.64
2017-07-22T02:20:46.328Z,15.68
2017-07-22T02:21:05.111Z,15.7
2017-07-22T02:21:24.400Z,15.7
2017-07-22T02:21:43.724Z,15.67
2017-07-22T02:22:03.019Z,15.73
2017-07-22T02:22:21.791Z,15.61
2017-07-22T02:22:40.558Z,15.7
2017-07-22T02:22:59.889Z,15.52
2017-07-22T02:23:19.175Z,15.63
2017-07-22T02:23:38.461Z,15.66
2017-07-22T02:23:57.748Z,15.59
2017-07-22T02:24:16.535Z,15.61
2017-07-22T02:24:35.816Z,15.55
2017-07-22T02:24:55.088Z,15.57
2017-07-22T02:25:14.359Z,15.61
2017-07-22T02:25:33.129Z,15.53
2017-07-22T02:25:52.434Z,15.61
2017-07-22T02:26:11.734Z,15.51
2017-07-22T02:26:30.018Z,15.51
2017-07-22T02:26:48.279Z,15.51
2017-07-22T02:27:07.541Z,15.57
2017-07-22T02:27:26.298Z,15.49
2017-07-22T02:27:45.575Z,15.55
2017-07-22T02:28:04.356Z,15.6
2017-07-22T02:28:23.652Z,15.48
2017-07-22T02:28:42.416Z,15.57
2017-07-22T02:29:01.697Z,15.46
2017-07-22T02:29:20.478Z,15.43
2017-07-22T02:29:39.750Z,15.53
2017-07-22T02:29:59.033Z,15.43
2017-07-22T02:30:17.828Z,15.41
2017-07-22T02:30:37.178Z,15.43
2017-07-22T02:30:56.467Z,15.45
2017-07-22T02:31:15.734Z,15.43
2017-07-22T02:31:35.030Z,15.52
2017-07-22T02:31:54.295Z,15.6
2017-07-22T02:32:13.546Z,15.55
2017-07-22T02:32:32.821Z,15.46
2017-07-22T02:32:51.621Z,15.45
2017-07-22T02:33:10.904Z,15.51
2017-07-22T02:33:30.199Z,15.42
2017-07-22T02:33:49.471Z,15.48
2017-07-22T02:34:08.243Z,15.49
2017-07-22T02:34:26.994Z,15.43
2017-07-22T02:34:46.275Z,15.38
2017-07-22T02:35:05.533Z,15.42
2017-07-22T02:35:24.832Z,15.46
2017-07-22T02:35:44.143Z,15.45
2017-07-22T02:36:03.419Z,15.39
2017-07-22T02:36:21.684Z,15.45
2017-07-22T02:36:40.984Z,15.43
2017-07-22T02:37:00.263Z,15.45
2017-07-22T02:37:19.551Z,15.48
2017-07-22T02:37:38.848Z,15.43
2017-07-22T02:37:58.117Z,15.46
2017-07-22T02:38:17.365Z,15.35
2017-07-22T02:38:36.653Z,15.42
2017-07-22T02:38:55.933Z,15.43
2017-07-22T02:39:15.358Z,15.46
2017-07-22T02:39:34.128Z,15.41
2017-07-22T02:39:53.419Z,15.43
2017-07-22T02:40:12.715Z,15.39
2017-07-22T02:40:31.994Z,15.48
2017-07-22T02:40:50.759Z,15.45
2017-07-22T02:41:10.044Z,15.43
2017-07-22T02:41:29.312Z,15.41
2017-07-22T02:41:48.613Z,15.48
2017-07-22T02:42:07.392Z,15.42
2017-07-22T02:42:25.664Z,15.49
2017-07-22T02:42:44.954Z,15.38
2017-07-22T02:43:04.231Z,15.41
2017-07-22T02:43:23.540Z,15.42
2017-07-22T02:43:42.823Z,15.51
2017-07-22T02:44:01.710Z,15.39
2017-07-22T02:44:21.009Z,15.45
2017-07-22T02:44:40.298Z,15.42
2017-07-22T02:44:59.068Z,15.43
2017-07-22T02:45:18.358Z,15.41
2017-07-22T02:45:37.118Z,15.39
2017-07-22T02:45:56.423Z,15.34
2017-07-22T02:46:15.710Z,15.38
2017-07-22T02:46:34.996Z,15.34
2017-07-22T02:46:53.776Z,15.43
2017-07-22T02:47:13.064Z,15.35
2017-07-22T02:47:32.348Z,15.39
2017-07-22T02:47:51.640Z,15.43
2017-07-22T02:48:10.427Z,15.48
2017-07-22T02:48:29.717Z,15.45
2017-07-22T02:48:49.015Z,15.42
2017-07-22T02:49:08.580Z,15.45
2017-07-22T02:49:27.357Z,15.43
2017-07-22T02:49:46.616Z,15.35
2017-07-22T02:50:05.361Z,15.41
2017-07-22T02:50:24.630Z,15.45
2017-07-22T02:50:43.908Z,15.39
2017-07-22T02:51:03.197Z,15.34
2017-07-22T02:51:21.432Z,15.33
2017-07-22T02:51:40.710Z,15.38
2017-07-22T02:51:59.989Z,15.35
2017-07-22T02:52:18.781Z,15.33
2017-07-22T02:52:38.095Z,15.38
2017-07-22T02:52:57.377Z,15.34
2017-07-22T02:53:16.656Z,15.41
2017-07-22T02:53:35.978Z,15.39
2017-07-22T02:53:55.261Z,15.35
2017-07-22T02:54:14.545Z,15.33
2017-07-22T02:54:33.298Z,15.43
2017-07-22T02:54:52.573Z,15.38
2017-07-22T02:55:11.843Z,15.34
2017-07-22T02:55:31.138Z,15.41
2017-07-22T02:55:50.395Z,15.35
2017-07-22T02:56:09.650Z,15.34
2017-07-22T02:56:28.935Z,15.34
2017-07-22T02:56:48.204Z,15.31
2017-07-22T02:57:07.473Z,15.43
2017-07-22T02:57:26.817Z,15.38
2017-07-22T02:57:46.088Z,15.31
2017-07-22T02:58:04.890Z,15.38
2017-07-22T02:58:23.659Z,15.41
2017-07-22T02:58:42.929Z,15.33
2017-07-22T02:59:01.691Z,15.33
2017-07-22T02:59:20.962Z,15.34
2017-07-22T02:59:40.251Z,15.35
2017-07-22T02:59:59.016Z,15.38
2017-07-22T03:00:18.299Z,15.31
2017-07-22T03:00:37.078Z,15.33
2017-07-22T03:00:56.385Z,15.3
2017-07-22T03:01:15.677Z,15.24
2017-07-22T03:01:34.942Z,15.31
2017-07-22T03:01:54.214Z,15.31
2017-07-22T03:02:12.982Z,15.34
2017-07-22T03:02:32.260Z,15.38
2017-07-22T03:02:51.529Z,15.3
2017-07-22T03:03:10.793Z,15.3
2017-07-22T03:03:30.070Z,15.24
2017-07-22T03:03:48.843Z,15.24
2017-07-22T03:04:08.263Z,15.26
2017-07-22T03:04:27.534Z,15.27
2017-07-22T03:04:46.850Z,15.21
2017-07-22T03:05:06.133Z,15.34
2017-07-22T03:05:25.420Z,15.31
2017-07-22T03:05:44.691Z,15.23
2017-07-22T03:06:03.974Z,15.26
2017-07-22T03:06:22.731Z,15.26
2017-07-22T03:06:42.029Z,15.21
2017-07-22T03:07:01.308Z,15.23
2017-07-22T03:07:19.553Z,15.18
2017-07-22T03:07:38.845Z,15.23
2017-07-22T03:07:58.159Z,15.24
2017-07-22T03:08:17.460Z,15.23
2017-07-22T03:08:36.743Z,15.21
2017-07-22T03:08:56.033Z,15.09
2017-07-22T03:09:15.455Z,15.13
2017-07-22T03:09:34.739Z,15.16
2017-07-22T03:09:54.029Z,15.03
2017-07-22T03:10:13.304Z,15.15
2017-07-22T03:10:32.572Z,15.03
2017-07-22T03:10:51.838Z,15.06
2017-07-22T03:11:11.120Z,15.05
2017-07-22T03:11:30.405Z,15.06
2017-07-22T03:11:49.690Z,15.09
2017-07-22T03:12:08.442Z,15.12
2017-07-22T03:12:27.222Z,15.09
2017-07-22T03:12:46.494Z,15.06
2017-07-22T03:13:05.765Z,15.02
2017-07-22T03:13:24.532Z,15.05
2017-07-22T03:13:43.824Z,15.08
2017-07-22T03:14:02.615Z,15.05
2017-07-22T03:14:21.372Z,15.08
2017-07-22T03:14:40.140Z,15.08
2017-07-22T03:14:58.411Z,15.13
2017-07-22T03:15:17.670Z,15.03
2017-07-22T03:15:36.966Z,15.06
2017-07-22T03:15:56.241Z,15.09
2017-07-22T03:16:15.546Z,15.06
2017-07-22T03:16:34.832Z,15.05
2017-07-22T03:16:54.123Z,15.03
2017-07-22T03:17:13.411Z,15.03
2017-07-22T03:17:32.676Z,15.02
2017-07-22T03:17:51.955Z,15.13
2017-07-22T03:18:11.245Z,15.13
2017-07-22T03:18:30.554Z,15.08
2017-07-22T03:18:49.890Z,15.06
2017-07-22T03:19:08.967Z,15.08
2017-07-22T03:19:27.729Z,15.06
2017-07-22T03:19:46.478Z,15.06
2017-07-22T03:20:05.263Z,15.06
2017-07-22T03:20:24.075Z,15.12
2017-07-22T03:20:43.367Z,15.06
2017-07-22T03:21:02.663Z,15.06
2017-07-22T03:21:21.450Z,15.09
2017-07-22T03:21:40.722Z,15.06
2017-07-22T03:21:59.509Z,15.06
2017-07-22T03:22:18.798Z,15.03
2017-07-22T03:22:38.086Z,15.08
2017-07-22T03:22:57.349Z,15.06
2017-07-22T03:23:16.120Z,15.03
2017-07-22T03:23:35.381Z,15.03
2017-07-22T03:23:54.664Z,14.95
2017-07-22T03:24:13.925Z,15.03
2017-07-22T03:24:31.660Z,14.93
2017-07-22T03:24:50.427Z,14.98
2017-07-22T03:25:09.208Z,14.87
2017-07-22T03:25:28.486Z,15.05
2017-07-22T03:25:46.740Z,14.94
2017-07-22T03:26:06.029Z,15.08
2017-07-22T03:26:25.290Z,15.05
2017-07-22T03:26:44.059Z,14.95
2017-07-22T03:27:03.363Z,14.9
2017-07-22T03:27:22.645Z,15.08
2017-07-22T03:27:41.438Z,15.02
2017-07-22T03:28:00.736Z,15.05
2017-07-22T03:28:20.011Z,14.95
2017-07-22T03:28:39.306Z,14.93
2017-07-22T03:28:58.577Z,14.91
2017-07-22T03:29:17.362Z,15.03
2017-07-22T03:29:36.109Z,14.91
2017-07-22T03:29:55.385Z,15.06
2017-07-22T03:30:14.671Z,15.02
2017-07-22T03:30:33.461Z,15.05
2017-07-22T03:30:52.768Z,14.91
2017-07-22T03:31:11.541Z,15.03
2017-07-22T03:31:30.346Z,15.06
2017-07-22T03:31:49.664Z,14.95
2017-07-22T03:32:08.912Z,14.94
2017-07-22T03:32:27.670Z,14.91
2017-07-22T03:32:46.955Z,14.87
2017-07-22T03:33:06.217Z,14.93
2017-07-22T03:33:25.494Z,14.95
2017-07-22T03:33:44.765Z,14.91
2017-07-22T03:34:03.528Z,14.88
2017-07-22T03:34:21.773Z,14.91
2017-07-22T03:34:41.031Z,14.83
2017-07-22T03:35:00.316Z,14.84
2017-07-22T03:35:19.648Z,14.88
2017-07-22T03:35:38.907Z,14.94
2017-07-22T03:35:58.193Z,14.94
2017-07-22T03:36:17.480Z,14.93
2017-07-22T03:36:36.798Z,14.94
2017-07-22T03:36:56.095Z,14.95
2017-07-22T03:37:15.365Z,14.9
2017-07-22T03:37:34.161Z,14.88
2017-07-22T03:37:53.447Z,14.75
2017-07-22T03:38:12.215Z,14.79
2017-07-22T03:38:30.997Z,14.71
2017-07-22T03:38:50.297Z,14.69
2017-07-22T03:39:09.077Z,14.69
2017-07-22T03:39:27.849Z,14.71
2017-07-22T03:39:47.110Z,14.67
2017-07-22T03:40:06.390Z,14.54
2017-07-22T03:40:25.173Z,14.59
2017-07-22T03:40:44.442Z,14.54
2017-07-22T03:41:03.737Z,14.49
2017-07-22T03:41:23.018Z,14.47
2017-07-22T03:41:42.289Z,14.44
2017-07-22T03:42:01.576Z,14.42
2017-07-22T03:42:20.849Z,14.46
2017-07-22T03:42:40.121Z,14.52
2017-07-22T03:42:59.397Z,14.5
2017-07-22T03:43:18.680Z,14.54
2017-07-22T03:43:37.973Z,14.49
2017-07-22T03:43:57.353Z,14.61
2017-07-22T03:44:15.633Z,14.61
2017-07-22T03:44:34.902Z,14.59
2017-07-22T03:44:54.186Z,14.6
2017-07-22T03:45:12.952Z,14.61
2017-07-22T03:45:32.244Z,14.57
2017-07-22T03:45:51.515Z,14.64
2017-07-22T03:46:10.302Z,14.57
2017-07-22T03:46:29.589Z,14.67
2017-07-22T03:46:48.869Z,14.68
2017-07-22T03:47:08.140Z,14.64
2017-07-22T03:47:27.445Z,14.69
2017-07-22T03:47:46.735Z,14.59
2017-07-22T03:48:06.035Z,14.74
2017-07-22T03:48:24.806Z,14.71
2017-07-22T03:48:44.053Z,14.68
2017-07-22T03:49:03.427Z,14.69
2017-07-22T03:49:22.713Z,14.72
2017-07-22T03:49:42.016Z,14.72
2017-07-22T03:50:00.780Z,14.79
2017-07-22T03:50:20.081Z,14.71
2017-07-22T03:50:38.904Z,14.79
2017-07-22T03:50:58.199Z,14.79
2017-07-22T03:51:17.507Z,14.71
2017-07-22T03:51:36.287Z,14.75
2017-07-22T03:51:55.597Z,14.84
2017-07-22T03:52:14.872Z,14.85
2017-07-22T03:52:34.188Z,14.84
2017-07-22T03:52:52.958Z,14.8
2017-07-22T03:53:12.229Z,14.8
2017-07-22T03:53:31.524Z,14.88
2017-07-22T03:53:50.333Z,14.9
2017-07-22T03:54:09.727Z,14.83
2017-07-22T03:54:28.500Z,14.87
2017-07-22T03:54:47.798Z,14.88
2017-07-22T03:55:07.080Z,14.85
2017-07-22T03:55:26.364Z,14.87
2017-07-22T03:55:45.645Z,14.79
2017-07-22T03:56:04.932Z,14.84
2017-07-22T03:56:23.699Z,14.83
2017-07-22T03:56:42.992Z,14.75
2017-07-22T03:57:02.255Z,14.78
2017-07-22T03:57:21.534Z,14.78
2017-07-22T03:57:40.791Z,14.8
2017-07-22T03:58:00.091Z,14.72
2017-07-22T03:58:19.380Z,14.72
2017-07-22T03:58:38.657Z,14.79
2017-07-22T03:58:57.908Z,14.84
2017-07-22T03:59:17.168Z,14.75
2017-07-22T03:59:35.447Z,14.88
2017-07-22T03:59:54.724Z,14.79
2017-07-22T04:00:14.023Z,14.84
2017-07-22T04:00:33.309Z,14.85
2017-07-22T04:00:54.492Z,14.75
2017-07-22T04:01:12.743Z,14.78
2017-07-22T04:01:32.028Z,14.79
2017-07-22T04:01:50.802Z,14.78
2017-07-22T04:02:10.069Z,14.79
2017-07-22T04:02:29.341Z,14.85
2017-07-22T04:02:48.621Z,14.8
2017-07-22T04:03:07.889Z,14.75
2017-07-22T04:03:27.180Z,14.72
2017-07-22T04:03:46.468Z,14.72
2017-07-22T04:04:05.767Z,14.79
2017-07-22T04:04:24.537Z,14.75
2017-07-22T04:04:43.839Z,14.74
2017-07-22T04:05:03.116Z,14.8
2017-07-22T04:05:21.859Z,14.74
2017-07-22T04:05:40.629Z,14.85
2017-07-22T04:05:59.893Z,14.72
2017-07-22T04:06:19.187Z,14.84
2017-07-22T04:06:38.487Z,14.72
2017-07-22T04:06:57.767Z,14.64
2017-07-22T04:07:17.076Z,14.68